San Carlos Park, Florida
Current Conditions -  °F | °C
As of 10:53 AM on Sunday 21 Dec 2014 (Local Time) from KFMY Reporting Station
Overcast Overcast  
Wind Chill: 75°   Ceiling: 10000
Heat Index: 75°   Visibility: 10mi
Dew Point: 65°   Wind: 6mph
Humidity: 71%   Direction: 150°SSE
Pressure: 30.1"   Gusts: NA
Location:  26.6372°N, 81.8725°W
Report Text: KFMY 211553Z 15005KT 10SM OVC100 24/18 A3010 RMK AO2 SLP193 T02390183
Loading
Personal Weather Stations






























Interactive Weather Map New forecast layout! Learn more

10-Day Weather Forecast

Advertisements
Track Severe Weather on mobile